Terminal Aerodrome Forecast
Issued by NWS

Home | Current Version | Previous Version | Text Only | Print | Product List | Glossary On
Versions: 1 2 3 4 5 6 7 8 9 10 11 12 13 14 15 16 17 18 19 20 21 22 23 24 25 26 27 28 29 30 31 32 33 34
509
FTUS46 KPDT 221135 AAB
TAFDLS
TAF AMD
KDLS 221135Z 2212/2312 VRB04KT 4SM BR VCSH FEW006 BKN060 OVC100
     FM222100 VRB05KT P6SM BKN040 OVC080
     FM230600 VRB04KT P6SM BKN080=

USA.gov is the U.S. government's official web portal to all federal, state and local government web resources and services.